sensor_id;sensor_type;location;lat;lon;timestamp;pressure;altitude;pressure_sealevel;temperature;humidity
34672;BME280;55835;52.096;21.060;2022-07-06T00:01:41;100601.75;;;22.91;60.12
34672;BME280;55835;52.096;21.060;2022-07-06T00:04:09;100604.28;;;22.92;59.80
34672;BME280;55835;52.096;21.060;2022-07-06T00:06:36;100602.63;;;22.91;60.19
34672;BME280;55835;52.096;21.060;2022-07-06T00:09:04;100595.56;;;22.90;60.38
34672;BME280;55835;52.096;21.060;2022-07-06T00:11:32;100594.22;;;22.70;60.40
34672;BME280;55835;52.096;21.060;2022-07-06T00:13:58;100587.50;;;22.49;60.15
34672;BME280;55835;52.096;21.060;2022-07-06T00:16:25;100582.13;;;22.33;59.98
34672;BME280;55835;52.096;21.060;2022-07-06T00:18:52;100584.78;;;22.24;59.44
34672;BME280;55835;52.096;21.060;2022-07-06T00:21:20;100589.09;;;22.17;59.35
34672;BME280;55835;52.096;21.060;2022-07-06T00:23:46;100589.78;;;22.11;58.64
34672;BME280;55835;52.096;21.060;2022-07-06T00:26:13;100576.53;;;22.10;58.75
34672;BME280;55835;52.096;21.060;2022-07-06T00:28:40;100581.06;;;22.09;58.51
34672;BME280;55835;52.096;21.060;2022-07-06T00:31:07;100580.56;;;22.05;58.43
34672;BME280;55835;52.096;21.060;2022-07-06T00:33:33;100589.09;;;22.01;58.45
34672;BME280;55835;52.096;21.060;2022-07-06T00:36:00;100584.88;;;21.98;58.10
34672;BME280;55835;52.096;21.060;2022-07-06T00:38:28;100586.06;;;21.96;58.04
34672;BME280;55835;52.096;21.060;2022-07-06T00:40:55;100588.09;;;22.10;58.46
34672;BME280;55835;52.096;21.060;2022-07-06T00:43:22;100581.78;;;22.28;58.09
34672;BME280;55835;52.096;21.060;2022-07-06T00:45:48;100579.44;;;22.41;58.16
34672;BME280;55835;52.096;21.060;2022-07-06T00:48:15;100577.59;;;22.50;57.76
34672;BME280;55835;52.096;21.060;2022-07-06T00:50:42;100571.59;;;22.56;58.36
34672;BME280;55835;52.096;21.060;2022-07-06T00:53:09;100566.06;;;22.57;58.37
34672;BME280;55835;52.096;21.060;2022-07-06T00:55:38;100571.75;;;22.62;58.04
34672;BME280;55835;52.096;21.060;2022-07-06T00:58:06;100558.00;;;22.66;58.22
34672;BME280;55835;52.096;21.060;2022-07-06T01:00:33;100558.66;;;22.68;58.37
34672;BME280;55835;52.096;21.060;2022-07-06T01:03:00;100567.38;;;22.70;58.41
34672;BME280;55835;52.096;21.060;2022-07-06T01:05:28;100558.34;;;22.71;58.28
34672;BME280;55835;52.096;21.060;2022-07-06T01:07:55;100557.16;;;22.73;58.41
34672;BME280;55835;52.096;21.060;2022-07-06T01:10:22;100563.34;;;22.74;58.58
34672;BME280;55835;52.096;21.060;2022-07-06T01:12:50;100558.84;;;22.74;58.32
34672;BME280;55835;52.096;21.060;2022-07-06T01:15:19;100555.97;;;22.76;58.23
34672;BME280;55835;52.096;21.060;2022-07-06T01:17:47;100552.94;;;22.79;58.62
34672;BME280;55835;52.096;21.060;2022-07-06T01:20:16;100553.78;;;22.79;58.75
34672;BME280;55835;52.096;21.060;2022-07-06T01:22:44;100548.25;;;22.81;58.60
34672;BME280;55835;52.096;21.060;2022-07-06T01:25:11;100558.63;;;22.84;58.40
34672;BME280;55835;52.096;21.060;2022-07-06T01:27:39;100546.25;;;22.83;58.53
34672;BME280;55835;52.096;21.060;2022-07-06T01:30:08;100550.56;;;22.84;58.30
34672;BME280;55835;52.096;21.060;2022-07-06T01:32:36;100550.41;;;22.86;58.59
34672;BME280;55835;52.096;21.060;2022-07-06T01:35:05;100554.13;;;22.85;58.52
34672;BME280;55835;52.096;21.060;2022-07-06T01:37:34;100542.19;;;22.87;58.29
34672;BME280;55835;52.096;21.060;2022-07-06T01:40:03;100548.59;;;22.86;58.44
34672;BME280;55835;52.096;21.060;2022-07-06T01:42:30;100552.94;;;22.87;58.41
34672;BME280;55835;52.096;21.060;2022-07-06T01:44:57;100536.81;;;22.87;58.65
34672;BME280;55835;52.096;21.060;2022-07-06T01:47:24;100546.56;;;22.88;58.33
34672;BME280;55835;52.096;21.060;2022-07-06T01:49:51;100539.34;;;22.89;58.43
34672;BME280;55835;52.096;21.060;2022-07-06T01:52:18;100556.28;;;22.89;58.41
34672;BME280;55835;52.096;21.060;2022-07-06T01:54:46;100552.59;;;22.90;58.43
34672;BME280;55835;52.096;21.060;2022-07-06T01:57:13;100546.41;;;22.90;58.52
34672;BME280;55835;52.096;21.060;2022-07-06T01:59:40;100546.22;;;22.91;58.72
34672;BME280;55835;52.096;21.060;2022-07-06T02:02:06;100546.06;;;22.93;58.43
34672;BME280;55835;52.096;21.060;2022-07-06T02:04:33;100547.88;;;22.92;58.86
34672;BME280;55835;52.096;21.060;2022-07-06T02:07:00;100546.88;;;22.93;58.70
34672;BME280;55835;52.096;21.060;2022-07-06T02:09:27;100539.00;;;22.92;58.91
34672;BME280;55835;52.096;21.060;2022-07-06T02:11:55;100546.88;;;22.93;58.54
34672;BME280;55835;52.096;21.060;2022-07-06T02:14:22;100552.91;;;22.95;58.70
34672;BME280;55835;52.096;21.060;2022-07-06T02:16:49;100547.56;;;22.95;59.01
34672;BME280;55835;52.096;21.060;2022-07-06T02:19:16;100551.06;;;22.96;58.83
34672;BME280;55835;52.096;21.060;2022-07-06T02:21:42;100546.56;;;22.96;58.83
34672;BME280;55835;52.096;21.060;2022-07-06T02:24:09;100541.19;;;22.96;58.65
34672;BME280;55835;52.096;21.060;2022-07-06T02:26:36;100540.16;;;22.97;58.99
34672;BME280;55835;52.096;21.060;2022-07-06T02:29:04;100541.19;;;22.96;58.68
34672;BME280;55835;52.096;21.060;2022-07-06T02:31:30;100542.84;;;22.97;59.10
34672;BME280;55835;52.096;21.060;2022-07-06T02:33:57;100546.56;;;22.96;59.13
34672;BME280;55835;52.096;21.060;2022-07-06T02:36:24;100538.50;;;22.96;59.33
34672;BME280;55835;52.096;21.060;2022-07-06T02:38:50;100542.19;;;22.95;59.08
34672;BME280;55835;52.096;21.060;2022-07-06T02:41:17;100530.44;;;22.96;58.92
34672;BME280;55835;52.096;21.060;2022-07-06T02:43:44;100536.63;;;22.97;59.00
34672;BME280;55835;52.096;21.060;2022-07-06T02:46:12;100534.94;;;22.96;58.98
34672;BME280;55835;52.096;21.060;2022-07-06T02:48:39;100542.66;;;22.99;59.19
34672;BME280;55835;52.096;21.060;2022-07-06T02:51:06;100541.84;;;22.98;59.32
34672;BME280;55835;52.096;21.060;2022-07-06T02:53:32;100537.47;;;22.97;59.23
34672;BME280;55835;52.096;21.060;2022-07-06T02:55:59;100540.81;;;22.99;58.80
34672;BME280;55835;52.096;21.060;2022-07-06T02:58:26;100544.53;;;22.98;59.27
34672;BME280;55835;52.096;21.060;2022-07-06T03:00:53;100540.81;;;22.99;58.92
34672;BME280;55835;52.096;21.060;2022-07-06T03:03:21;100543.50;;;22.99;58.88
34672;BME280;55835;52.096;21.060;2022-07-06T03:05:47;100541.69;;;23.00;58.87
34672;BME280;55835;52.096;21.060;2022-07-06T03:08:14;100537.13;;;23.00;59.27
34672;BME280;55835;52.096;21.060;2022-07-06T03:10:41;100539.00;;;23.00;59.20
34672;BME280;55835;52.096;21.060;2022-07-06T03:13:08;100533.63;;;23.00;58.74
34672;BME280;55835;52.096;21.060;2022-07-06T03:15:35;100537.13;;;23.00;59.08
34672;BME280;55835;52.096;21.060;2022-07-06T03:18:01;100528.25;;;23.00;59.09
34672;BME280;55835;52.096;21.060;2022-07-06T03:20:30;100532.75;;;22.99;58.96
34672;BME280;55835;52.096;21.060;2022-07-06T03:22:56;100528.06;;;23.02;58.78
34672;BME280;55835;52.096;21.060;2022-07-06T03:25:23;100526.22;;;23.02;58.74
34672;BME280;55835;52.096;21.060;2022-07-06T03:27:50;100525.41;;;23.02;59.14
34672;BME280;55835;52.096;21.060;2022-07-06T03:30:16;100523.72;;;23.00;58.83
34672;BME280;55835;52.096;21.060;2022-07-06T03:32:43;100535.97;;;23.03;59.04
34672;BME280;55835;52.096;21.060;2022-07-06T03:35:10;100526.22;;;23.02;58.89
34672;BME280;55835;52.096;21.060;2022-07-06T03:37:38;100522.72;;;23.02;59.17
34672;BME280;55835;52.096;21.060;2022-07-06T03:40:06;100511.09;;;23.01;59.01
34672;BME280;55835;52.096;21.060;2022-07-06T03:42:33;100516.47;;;23.01;59.15
34672;BME280;55835;52.096;21.060;2022-07-06T03:44:59;100511.97;;;23.02;59.04
34672;BME280;55835;52.096;21.060;2022-07-06T03:47:26;100515.66;;;23.00;59.34
34672;BME280;55835;52.096;21.060;2022-07-06T03:49:52;100503.06;;;23.01;58.83
34672;BME280;55835;52.096;21.060;2022-07-06T03:52:19;100502.88;;;23.03;58.89
34672;BME280;55835;52.096;21.060;2022-07-06T03:54:47;100499.19;;;23.04;58.80
34672;BME280;55835;52.096;21.060;2022-07-06T03:57:14;100498.38;;;23.03;58.97
34672;BME280;55835;52.096;21.060;2022-07-06T03:59:41;100505.41;;;23.04;59.33
34672;BME280;55835;52.096;21.060;2022-07-06T04:02:07;100494.00;;;23.02;58.96
34672;BME280;55835;52.096;21.060;2022-07-06T04:04:34;100503.91;;;23.02;59.05
34672;BME280;55835;52.096;21.060;2022-07-06T04:07:01;100507.25;;;23.04;59.30
34672;BME280;55835;52.096;21.060;2022-07-06T04:09:27;100506.59;;;23.02;59.32
34672;BME280;55835;52.096;21.060;2022-07-06T04:11:55;100497.50;;;23.03;58.95
34672;BME280;55835;52.096;21.060;2022-07-06T04:14:22;100497.69;;;23.01;59.07
34672;BME280;55835;52.096;21.060;2022-07-06T04:16:49;100496.84;;;23.00;59.20
34672;BME280;55835;52.096;21.060;2022-07-06T04:19:15;100499.53;;;23.00;59.02
34672;BME280;55835;52.096;21.060;2022-07-06T04:21:42;100503.91;;;23.02;59.26
34672;BME280;55835;52.096;21.060;2022-07-06T04:24:09;100507.59;;;23.00;59.37
34672;BME280;55835;52.096;21.060;2022-07-06T04:26:35;100507.75;;;22.99;59.09
34672;BME280;55835;52.096;21.060;2022-07-06T04:29:03;100504.06;;;23.00;58.90
34672;BME280;55835;52.096;21.060;2022-07-06T04:31:30;100500.53;;;22.99;59.29
34672;BME280;55835;52.096;21.060;2022-07-06T04:33:56;100498.72;;;23.00;59.30
34672;BME280;55835;52.096;21.060;2022-07-06T04:36:23;100493.16;;;23.02;59.13
34672;BME280;55835;52.096;21.060;2022-07-06T04:38:50;100490.81;;;22.98;59.48
34672;BME280;55835;52.096;21.060;2022-07-06T04:41:16;100487.09;;;22.99;59.18
34672;BME280;55835;52.096;21.060;2022-07-06T04:43:43;100485.44;;;22.98;59.22
34672;BME280;55835;52.096;21.060;2022-07-06T04:46:11;100492.31;;;23.01;59.38
34672;BME280;55835;52.096;21.060;2022-07-06T04:48:38;100489.63;;;23.01;59.09
34672;BME280;55835;52.096;21.060;2022-07-06T04:51:06;100495.84;;;23.02;59.52
34672;BME280;55835;52.096;21.060;2022-07-06T04:53:33;100495.84;;;23.02;59.24
34672;BME280;55835;52.096;21.060;2022-07-06T04:55:59;100490.09;;;23.05;59.48
34672;BME280;55835;52.096;21.060;2022-07-06T04:58:26;100499.19;;;23.04;59.26
34672;BME280;55835;52.096;21.060;2022-07-06T05:00:53;100504.41;;;23.05;59.24
34672;BME280;55835;52.096;21.060;2022-07-06T05:03:21;100506.22;;;23.05;58.96
34672;BME280;55835;52.096;21.060;2022-07-06T05:05:48;100505.41;;;23.04;59.02
34672;BME280;55835;52.096;21.060;2022-07-06T05:08:15;100506.09;;;23.06;58.96
34672;BME280;55835;52.096;21.060;2022-07-06T05:10:41;100503.56;;;23.13;58.95
34672;BME280;55835;52.096;21.060;2022-07-06T05:13:08;100503.38;;;23.14;58.65
34672;BME280;55835;52.096;21.060;2022-07-06T05:15:35;100497.00;;;23.15;58.82
34672;BME280;55835;52.096;21.060;2022-07-06T05:18:01;100492.13;;;23.19;58.90
34672;BME280;55835;52.096;21.060;2022-07-06T05:20:29;100493.78;;;23.20;58.32
34672;BME280;55835;52.096;21.060;2022-07-06T05:22:56;100510.75;;;23.21;58.51
34672;BME280;55835;52.096;21.060;2022-07-06T05:25:23;100513.28;;;23.22;58.53
34672;BME280;55835;52.096;21.060;2022-07-06T05:27:50;100505.22;;;23.22;58.15
34672;BME280;55835;52.096;21.060;2022-07-06T05:30:17;100511.91;;;23.26;58.41
34672;BME280;55835;52.096;21.060;2022-07-06T05:32:43;100506.69;;;23.25;58.49
34672;BME280;55835;52.096;21.060;2022-07-06T05:35:10;100507.91;;;23.22;58.25
34672;BME280;55835;52.096;21.060;2022-07-06T05:37:38;100505.69;;;23.26;58.39
34672;BME280;55835;52.096;21.060;2022-07-06T05:40:06;100517.94;;;23.28;58.13
34672;BME280;55835;52.096;21.060;2022-07-06T05:42:32;100521.28;;;23.30;58.22
34672;BME280;55835;52.096;21.060;2022-07-06T05:44:59;100519.50;;;23.06;58.08
34672;BME280;55835;52.096;21.060;2022-07-06T05:47:26;100528.09;;;22.85;57.61
34672;BME280;55835;52.096;21.060;2022-07-06T05:50:10;100532.81;;;22.58;58.19
34672;BME280;55835;52.096;21.060;2022-07-06T05:52:41;100531.81;;;22.51;57.71
34672;BME280;55835;52.096;21.060;2022-07-06T05:55:09;100540.88;;;22.67;57.59
34672;BME280;55835;52.096;21.060;2022-07-06T05:57:35;100539.22;;;22.66;57.33
34672;BME280;55835;52.096;21.060;2022-07-06T06:00:03;100538.72;;;22.54;57.77
34672;BME280;55835;52.096;21.060;2022-07-06T06:02:36;100549.59;;;22.36;57.96
34672;BME280;55835;52.096;21.060;2022-07-06T06:05:04;100537.88;;;22.29;57.86
34672;BME280;55835;52.096;21.060;2022-07-06T06:07:33;100542.69;;;22.25;57.64
34672;BME280;55835;52.096;21.060;2022-07-06T06:10:01;100533.81;;;22.16;57.90
34672;BME280;55835;52.096;21.060;2022-07-06T06:12:27;100542.84;;;22.23;58.37
34672;BME280;55835;52.096;21.060;2022-07-06T06:14:54;100541.22;;;22.47;58.12
34672;BME280;55835;52.096;21.060;2022-07-06T06:17:21;100553.13;;;22.61;57.77
34672;BME280;55835;52.096;21.060;2022-07-06T06:19:47;100549.25;;;22.72;58.05
34672;BME280;55835;52.096;21.060;2022-07-06T06:22:14;100546.75;;;22.78;57.65
34672;BME280;55835;52.096;21.060;2022-07-06T06:24:41;100542.19;;;22.87;57.82
34672;BME280;55835;52.096;21.060;2022-07-06T06:27:09;100540.69;;;22.93;57.87
34672;BME280;55835;52.096;21.060;2022-07-06T06:29:35;100536.16;;;22.93;57.96
34672;BME280;55835;52.096;21.060;2022-07-06T06:32:02;100534.13;;;22.95;57.98
34672;BME280;55835;52.096;21.060;2022-07-06T06:34:30;100529.75;;;22.94;57.98
34672;BME280;55835;52.096;21.060;2022-07-06T06:36:57;100527.38;;;22.99;57.98
34672;BME280;55835;52.096;21.060;2022-07-06T06:39:24;100531.75;;;23.00;58.20
34672;BME280;55835;52.096;21.060;2022-07-06T06:41:50;100534.28;;;23.02;57.99
34672;BME280;55835;52.096;21.060;2022-07-06T06:44:18;100533.94;;;23.05;57.78
34672;BME280;55835;52.096;21.060;2022-07-06T06:46:48;100538.31;;;23.06;58.14
34672;BME280;55835;52.096;21.060;2022-07-06T06:49:15;100537.31;;;23.07;57.93
34672;BME280;55835;52.096;21.060;2022-07-06T06:51:42;100537.16;;;23.09;58.52
34672;BME280;55835;52.096;21.060;2022-07-06T06:54:08;100541.50;;;23.10;58.03
34672;BME280;55835;52.096;21.060;2022-07-06T06:56:35;100536.97;;;23.10;58.36
34672;BME280;55835;52.096;21.060;2022-07-06T06:59:02;100540.31;;;23.12;58.11
34672;BME280;55835;52.096;21.060;2022-07-06T07:01:30;100542.84;;;23.14;58.63
34672;BME280;55835;52.096;21.060;2022-07-06T07:03:58;100536.66;;;23.13;58.33
34672;BME280;55835;52.096;21.060;2022-07-06T07:06:24;100536.44;;;23.15;58.56
34672;BME280;55835;52.096;21.060;2022-07-06T07:08:51;100538.66;;;23.03;58.88
34672;BME280;55835;52.096;21.060;2022-07-06T07:11:18;100542.03;;;22.80;59.00
34672;BME280;55835;52.096;21.060;2022-07-06T07:13:45;100536.88;;;22.62;58.84
34672;BME280;55835;52.096;21.060;2022-07-06T07:16:11;100535.19;;;22.45;58.63
34672;BME280;55835;52.096;21.060;2022-07-06T07:18:39;100547.25;;;22.41;58.83
34672;BME280;55835;52.096;21.060;2022-07-06T07:21:06;100541.88;;;22.41;58.80
34672;BME280;55835;52.096;21.060;2022-07-06T07:23:33;100539.53;;;22.46;58.31
34672;BME280;55835;52.096;21.060;2022-07-06T07:25:59;100543.38;;;22.60;58.20
34672;BME280;55835;52.096;21.060;2022-07-06T07:28:26;100537.84;;;22.78;58.71
34672;BME280;55835;52.096;21.060;2022-07-06T07:30:53;100541.19;;;22.96;58.33
34672;BME280;55835;52.096;21.060;2022-07-06T07:33:20;100535.78;;;23.05;58.03
34672;BME280;55835;52.096;21.060;2022-07-06T07:35:48;100538.78;;;23.18;58.35
34672;BME280;55835;52.096;21.060;2022-07-06T07:38:15;100545.47;;;23.30;57.53
34672;BME280;55835;52.096;21.060;2022-07-06T07:40:41;100540.41;;;23.35;57.45
34672;BME280;55835;52.096;21.060;2022-07-06T07:43:08;100539.03;;;23.48;58.24
34672;BME280;55835;52.096;21.060;2022-07-06T07:45:35;100547.41;;;23.53;58.50
34672;BME280;55835;52.096;21.060;2022-07-06T07:48:01;100544.75;;;23.45;57.95
34672;BME280;55835;52.096;21.060;2022-07-06T07:50:28;100550.81;;;23.38;58.64
34672;BME280;55835;52.096;21.060;2022-07-06T07:52:57;100552.16;;;23.43;58.65
34672;BME280;55835;52.096;21.060;2022-07-06T07:55:23;100547.25;;;23.54;58.32
34672;BME280;55835;52.096;21.060;2022-07-06T07:57:50;100546.38;;;23.54;58.30
34672;BME280;55835;52.096;21.060;2022-07-06T08:00:17;100556.97;;;23.55;58.63
34672;BME280;55835;52.096;21.060;2022-07-06T08:02:46;100556.97;;;23.55;58.19
34672;BME280;55835;52.096;21.060;2022-07-06T08:05:13;100544.91;;;23.51;58.78
34672;BME280;55835;52.096;21.060;2022-07-06T08:07:41;100551.78;;;23.46;58.95
34672;BME280;55835;52.096;21.060;2022-07-06T08:10:09;100554.44;;;23.54;58.79
34672;BME280;55835;52.096;21.060;2022-07-06T08:12:36;100556.94;;;23.64;58.27
34672;BME280;55835;52.096;21.060;2022-07-06T08:15:04;100553.03;;;23.66;58.32
34672;BME280;55835;52.096;21.060;2022-07-06T08:17:31;100552.34;;;23.72;57.57
34672;BME280;55835;52.096;21.060;2022-07-06T08:19:57;100554.53;;;23.77;57.47
34672;BME280;55835;52.096;21.060;2022-07-06T08:22:24;100557.38;;;23.84;57.49
34672;BME280;55835;52.096;21.060;2022-07-06T08:24:52;100563.06;;;23.81;57.24
34672;BME280;55835;52.096;21.060;2022-07-06T08:27:20;100556.66;;;23.90;56.95
34672;BME280;55835;52.096;21.060;2022-07-06T08:29:47;100550.63;;;23.80;56.85
34672;BME280;55835;52.096;21.060;2022-07-06T08:32:14;100557.00;;;23.87;56.65
34672;BME280;55835;52.096;21.060;2022-07-06T08:34:40;100543.75;;;23.77;56.77
34672;BME280;55835;52.096;21.060;2022-07-06T08:37:09;100551.31;;;23.82;56.79
34672;BME280;55835;52.096;21.060;2022-07-06T08:39:36;100545.25;;;23.88;56.21
34672;BME280;55835;52.096;21.060;2022-07-06T08:42:03;100549.63;;;23.81;56.68
34672;BME280;55835;52.096;21.060;2022-07-06T08:44:32;100549.63;;;23.81;56.69
34672;BME280;55835;52.096;21.060;2022-07-06T08:47:04;100563.69;;;23.99;56.50
34672;BME280;55835;52.096;21.060;2022-07-06T08:49:32;100560.56;;;24.10;55.96
34672;BME280;55835;52.096;21.060;2022-07-06T08:52:00;100557.56;;;24.05;55.10
34672;BME280;55835;52.096;21.060;2022-07-06T08:54:27;100562.94;;;24.05;55.38
34672;BME280;55835;52.096;21.060;2022-07-06T08:56:55;100556.72;;;24.05;55.45
34672;BME280;55835;52.096;21.060;2022-07-06T08:59:22;100565.97;;;24.02;55.42
34672;BME280;55835;52.096;21.060;2022-07-06T09:01:50;100561.84;;;23.91;55.49
34672;BME280;55835;52.096;21.060;2022-07-06T09:04:18;100570.28;;;23.88;55.10
34672;BME280;55835;52.096;21.060;2022-07-06T09:06:47;100564.72;;;23.90;54.86
34672;BME280;55835;52.096;21.060;2022-07-06T09:09:18;100563.72;;;23.91;55.05
34672;BME280;55835;52.096;21.060;2022-07-06T09:11:46;100567.72;;;23.95;54.45
34672;BME280;55835;52.096;21.060;2022-07-06T09:14:13;100567.72;;;23.95;54.48
34672;BME280;55835;52.096;21.060;2022-07-06T09:16:40;100562.81;;;23.99;54.37
34672;BME280;55835;52.096;21.060;2022-07-06T09:19:10;100559.59;;;24.03;53.54
34672;BME280;55835;52.096;21.060;2022-07-06T09:21:37;100567.97;;;24.08;53.79
34672;BME280;55835;52.096;21.060;2022-07-06T09:24:07;100563.78;;;24.06;53.38
34672;BME280;55835;52.096;21.060;2022-07-06T09:26:34;100568.66;;;24.02;53.00
34672;BME280;55835;52.096;21.060;2022-07-06T09:29:02;100557.09;;;24.02;53.01
34672;BME280;55835;52.096;21.060;2022-07-06T09:31:29;100561.63;;;24.01;52.43
34672;BME280;55835;52.096;21.060;2022-07-06T09:33:57;100556.56;;;24.06;52.28
34672;BME280;55835;52.096;21.060;2022-07-06T09:36:43;100563.25;;;24.10;52.45
34672;BME280;55835;52.096;21.060;2022-07-06T09:39:18;100554.00;;;24.13;52.72
34672;BME280;55835;52.096;21.060;2022-07-06T09:41:45;100566.88;;;24.18;52.69
34672;BME280;55835;52.096;21.060;2022-07-06T09:44:12;100566.88;;;24.18;51.86
34672;BME280;55835;52.096;21.060;2022-07-06T09:46:41;100573.97;;;24.19;52.27
34672;BME280;55835;52.096;21.060;2022-07-06T09:49:08;100563.78;;;24.29;51.13
34672;BME280;55835;52.096;21.060;2022-07-06T09:51:36;100561.09;;;24.29;51.34
34672;BME280;55835;52.096;21.060;2022-07-06T09:54:08;100559.25;;;24.29;51.01
34672;BME280;55835;52.096;21.060;2022-07-06T09:56:38;100555.38;;;24.32;50.63
34672;BME280;55835;52.096;21.060;2022-07-06T09:59:08;100558.06;;;24.32;50.09
34672;BME280;55835;52.096;21.060;2022-07-06T10:01:35;100559.00;;;24.39;50.17
34672;BME280;55835;52.096;21.060;2022-07-06T10:04:02;100553.56;;;24.47;49.46
34672;BME280;55835;52.096;21.060;2022-07-06T10:06:29;100554.28;;;24.41;49.21
34672;BME280;55835;52.096;21.060;2022-07-06T10:08:57;100547.72;;;24.44;49.70
34672;BME280;55835;52.096;21.060;2022-07-06T10:11:28;100541.94;;;24.47;49.06
34672;BME280;55835;52.096;21.060;2022-07-06T10:13:56;100554.84;;;24.60;49.58
34672;BME280;55835;52.096;21.060;2022-07-06T10:16:24;100562.38;;;24.64;49.40
34672;BME280;55835;52.096;21.060;2022-07-06T10:18:51;100546.03;;;24.66;48.09
34672;BME280;55835;52.096;21.060;2022-07-06T10:21:21;100553.84;;;24.76;49.18
34672;BME280;55835;52.096;21.060;2022-07-06T10:23:49;100551.97;;;24.61;51.25
34672;BME280;55835;52.096;21.060;2022-07-06T10:26:17;100558.13;;;24.24;51.28
34672;BME280;55835;52.096;21.060;2022-07-06T10:28:45;100544.28;;;23.72;50.74
34672;BME280;55835;52.096;21.060;2022-07-06T10:31:14;100554.84;;;23.43;48.99
34672;BME280;55835;52.096;21.060;2022-07-06T10:33:42;100544.00;;;23.19;48.68
34672;BME280;55835;52.096;21.060;2022-07-06T10:36:09;100556.28;;;23.06;47.67
34672;BME280;55835;52.096;21.060;2022-07-06T10:38:36;100554.13;;;22.93;47.33
34672;BME280;55835;52.096;21.060;2022-07-06T10:41:04;100553.97;;;22.78;46.87
34672;BME280;55835;52.096;21.060;2022-07-06T10:43:32;100556.81;;;22.68;46.06
34672;BME280;55835;52.096;21.060;2022-07-06T10:46:07;100558.66;;;22.51;46.17
34672;BME280;55835;52.096;21.060;2022-07-06T10:48:34;100557.34;;;22.47;45.65
34672;BME280;55835;52.096;21.060;2022-07-06T10:51:01;100564.88;;;22.76;45.72
34672;BME280;55835;52.096;21.060;2022-07-06T10:53:32;100555.44;;;23.13;45.12
34672;BME280;55835;52.096;21.060;2022-07-06T10:56:02;100561.38;;;23.48;45.36
34672;BME280;55835;52.096;21.060;2022-07-06T10:58:48;100549.34;;;23.67;45.10
34672;BME280;55835;52.096;21.060;2022-07-06T11:01:18;100554.69;;;23.84;45.31
34672;BME280;55835;52.096;21.060;2022-07-06T11:03:47;100557.31;;;23.92;45.33
34672;BME280;55835;52.096;21.060;2022-07-06T11:06:15;100563.28;;;24.02;45.09
34672;BME280;55835;52.096;21.060;2022-07-06T11:08:52;100562.94;;;24.05;44.43
34672;BME280;55835;52.096;21.060;2022-07-06T11:11:21;100557.34;;;24.15;45.10
34672;BME280;55835;52.096;21.060;2022-07-06T11:13:53;100564.16;;;24.26;44.90
34672;BME280;55835;52.096;21.060;2022-07-06T11:16:23;100553.97;;;24.36;44.89
34672;BME280;55835;52.096;21.060;2022-07-06T11:19:00;100548.47;;;24.29;45.60
34672;BME280;55835;52.096;21.060;2022-07-06T11:21:36;100539.09;;;24.02;45.86
34672;BME280;55835;52.096;21.060;2022-07-06T11:24:04;100553.13;;;24.12;45.38
34672;BME280;55835;52.096;21.060;2022-07-06T11:26:31;100548.34;;;24.23;46.35
34672;BME280;55835;52.096;21.060;2022-07-06T11:29:02;100551.34;;;24.28;46.28
34672;BME280;55835;52.096;21.060;2022-07-06T11:31:33;100548.25;;;24.39;46.15
34672;BME280;55835;52.096;21.060;2022-07-06T11:34:00;100550.28;;;24.37;45.21
34672;BME280;55835;52.096;21.060;2022-07-06T11:36:27;100550.63;;;24.34;45.39
34672;BME280;55835;52.096;21.060;2022-07-06T11:38:54;100546.78;;;24.52;47.40
34672;BME280;55835;52.096;21.060;2022-07-06T11:41:20;100548.66;;;24.51;46.36
34672;BME280;55835;52.096;21.060;2022-07-06T11:43:50;100543.09;;;24.53;46.83
34672;BME280;55835;52.096;21.060;2022-07-06T11:46:27;100544.41;;;24.57;46.61
34672;BME280;55835;52.096;21.060;2022-07-06T11:48:57;100552.19;;;24.52;45.44
34672;BME280;55835;52.096;21.060;2022-07-06T11:51:25;100552.06;;;24.45;46.85
34672;BME280;55835;52.096;21.060;2022-07-06T11:53:55;100544.53;;;24.40;46.28
34672;BME280;55835;52.096;21.060;2022-07-06T11:56:23;100544.34;;;24.42;46.10
34672;BME280;55835;52.096;21.060;2022-07-06T11:58:52;100546.09;;;24.58;46.02
34672;BME280;55835;52.096;21.060;2022-07-06T12:01:21;100550.13;;;24.54;46.42
34672;BME280;55835;52.096;21.060;2022-07-06T12:03:48;100545.97;;;24.51;46.27
34672;BME280;55835;52.096;21.060;2022-07-06T12:06:18;100537.38;;;24.56;46.76
34672;BME280;55835;52.096;21.060;2022-07-06T12:08:48;100548.81;;;24.58;46.14
34672;BME280;55835;52.096;21.060;2022-07-06T12:11:21;100542.03;;;24.62;45.55
34672;BME280;55835;52.096;21.060;2022-07-06T12:13:49;100554.38;;;24.56;47.07
34672;BME280;55835;52.096;21.060;2022-07-06T12:16:16;100546.59;;;24.61;46.88
34672;BME280;55835;52.096;21.060;2022-07-06T12:18:44;100558.75;;;24.72;46.27
34672;BME280;55835;52.096;21.060;2022-07-06T12:21:20;100547.38;;;24.85;45.78
34672;BME280;55835;52.096;21.060;2022-07-06T12:23:49;100553.00;;;24.75;46.25
34672;BME280;55835;52.096;21.060;2022-07-06T12:26:18;100551.78;;;24.63;48.70
34672;BME280;55835;52.096;21.060;2022-07-06T12:28:46;100551.34;;;24.51;48.57
34672;BME280;55835;52.096;21.060;2022-07-06T12:31:31;100554.75;;;24.45;46.88
34672;BME280;55835;52.096;21.060;2022-07-06T12:33:58;100551.13;;;24.61;46.23
34672;BME280;55835;52.096;21.060;2022-07-06T12:36:27;100549.31;;;24.76;45.01
34672;BME280;55835;52.096;21.060;2022-07-06T12:38:53;100552.94;;;24.83;45.27
34672;BME280;55835;52.096;21.060;2022-07-06T12:41:25;100555.34;;;24.93;44.90
34672;BME280;55835;52.096;21.060;2022-07-06T12:44:00;100552.13;;;24.98;45.07